Time;durP1;ratioP1;P1;durP2;ratioP2;P2;SDS_P1;SDS_P2;PMS_P1;PMS_P2;Temp;Humidity;BMP_temperature;BMP_pressure;BME280_temperature;BME280_humidity;BME280_pressure;Samples;Min_cycle;Max_cycle;Signal;HPM_P1;HPM_P2
2022/02/07 00:09:34;;;;;;;0.20;0.20;;;9.00;99.90;;;;;;20754805;28;20141;-73
2022/02/07 00:19:35;;;;;;;;;;;9.10;99.90;;;;;;20756015;28;20121;-74
2022/02/07 00:29:36;;;;;;;0.30;0.20;;;9.20;99.90;;;;;;20753271;28;20394;-74
2022/02/07 00:39:45;;;;;;;0.20;0.20;;;8.60;99.90;;;;;;20843316;22;20041;-83
2022/02/07 00:49:46;;;;;;;1.60;0.30;;;8.20;99.90;;;;;;20771419;28;20066;-81
2022/02/07 00:59:48;;;;;;;0.28;0.20;;;8.00;99.90;;;;;;20771507;28;20669;-80
2022/02/07 01:09:52;;;;;;;1.20;0.70;;;7.60;99.90;;;;;;20769508;28;20482;-81
2022/02/07 02:01:14;;;;;;;1.30;0.20;;;7.00;99.90;;;;;;20770970;28;20026;-83
2022/02/07 02:11:15;;;;;;;1.75;0.20;;;6.90;99.90;;;;;;20771933;28;20088;-82
2022/02/07 02:52:15;;;;;;;1.55;0.20;;;5.90;99.90;;;;;;20909256;28;20039;-81
2022/02/07 03:02:18;;;;;;;0.20;0.20;;;5.40;99.90;;;;;;20891867;28;20044;-80
2022/02/07 03:12:20;;;;;;;0.30;0.30;;;5.00;99.90;;;;;;20889853;28;20512;-82
2022/02/07 03:22:22;;;;;;;0.20;0.20;;;4.80;99.90;;;;;;20878299;28;20076;-80
2022/02/07 03:32:23;;;;;;;;;;;4.70;99.90;;;;;;20857906;28;20029;-80
2022/02/07 03:42:40;;;;;;;2.15;0.38;;;4.40;99.90;;;;;;20778998;28;19920;-81
2022/02/07 03:52:43;;;;;;;0.80;0.40;;;4.20;99.90;;;;;;20810921;28;20034;-80
2022/02/07 04:02:49;;;;;;;2.08;0.57;;;4.20;99.90;;;;;;20744211;28;20030;-81
2022/02/07 04:13:08;;;;;;;;;;;4.10;99.90;;;;;;20755918;28;20044;-81
2022/02/07 04:23:09;;;;;;;3.30;0.70;;;4.10;99.90;;;;;;20738963;28;19918;-81
2022/02/07 04:33:19;;;;;;;4.03;0.50;;;4.10;99.90;;;;;;20737534;28;20030;-81
2022/02/07 04:43:20;;;;;;;4.75;0.45;;;4.00;99.90;;;;;;20736140;28;20057;-81
2022/02/07 04:53:40;;;;;;;1.17;0.38;;;3.90;99.90;;;;;;20739236;28;20034;-82
2022/02/07 05:03:52;;;;;;;3.85;0.77;;;3.90;99.90;;;;;;20740270;28;20042;-81
2022/02/07 05:13:57;;;;;;;3.22;1.30;;;3.80;99.90;;;;;;20753437;28;20049;-81
2022/02/07 05:24:00;;;;;;;2.40;0.85;;;3.80;99.90;;;;;;20751762;28;20084;-80
2022/02/07 05:34:19;;;;;;;4.82;0.80;;;3.80;99.90;;;;;;20752893;28;20045;-80
2022/02/07 05:44:31;;;;;;;1.48;0.90;;;3.80;99.90;;;;;;20748317;28;20506;-81
2022/02/07 05:54:45;;;;;;;2.25;1.00;;;3.80;99.90;;;;;;20732462;28;20037;-80
2022/02/07 06:05:05;;;;;;;;;;;3.70;99.90;;;;;;20746450;28;20502;-80
2022/02/07 06:15:08;;;;;;;4.07;0.87;;;3.70;99.90;;;;;;20745599;28;19924;-80
2022/02/07 06:25:10;;;;;;;4.88;0.85;;;3.60;99.90;;;;;;20733402;28;20036;-80
2022/02/07 06:35:15;;;;;;;7.45;1.23;;;3.60;99.90;;;;;;20749921;23;20021;-76
2022/02/07 06:45:17;;;;;;;8.60;1.27;;;3.50;99.90;;;;;;20944085;28;20093;-76
2022/02/07 06:55:18;;;;;;;;;;;3.40;99.90;;;;;;20991185;28;20486;-76
2022/02/07 07:05:23;;;;;;;6.45;1.40;;;3.40;99.90;;;;;;20972308;28;19955;-76
2022/02/07 07:15:36;;;;;;;7.40;1.63;;;3.30;99.90;;;;;;20971726;28;20479;-75
2022/02/07 07:25:39;;;;;;;5.63;1.48;;;3.40;99.90;;;;;;20976844;28;20107;-76
2022/02/07 07:35:40;;;;;;;6.55;1.55;;;3.40;99.90;;;;;;20986869;28;20179;-76
2022/02/07 07:45:46;;;;;;;8.18;1.40;;;3.80;99.90;;;;;;20986334;28;20047;-75
2022/02/07 08:06:41;;;;;;;7.10;1.58;;;4.30;99.90;;;;;;21002639;28;20024;-76
2022/02/07 08:16:42;;;;;;;11.13;1.77;;;4.60;99.90;;;;;;20984049;28;20102;-75
2022/02/07 08:26:43;;;;;;;3.35;1.15;;;5.20;99.90;;;;;;20983241;28;20036;-76
2022/02/07 08:36:44;;;;;;;7.90;1.58;;;6.00;99.90;;;;;;20999426;28;20444;-76
2022/02/07 08:46:45;;;;;;;10.67;1.33;;;6.20;99.90;;;;;;20999674;28;20077;-76
2022/02/07 08:56:57;;;;;;;7.60;1.50;;;6.60;99.90;;;;;;20998838;28;20033;-76
2022/02/07 09:07:08;;;;;;;8.15;1.30;;;6.30;99.90;;;;;;20998117;28;20028;-75
2022/02/07 09:17:09;;;;;;;8.30;1.52;;;6.20;99.90;;;;;;20997256;28;20482;-75
2022/02/07 09:27:11;;;;;;;4.80;1.00;;;7.00;99.90;;;;;;20978473;28;20071;-76
2022/02/07 09:37:12;;;;;;;3.28;1.23;;;6.70;99.90;;;;;;20995309;28;20036;-76
2022/02/07 09:47:15;;;;;;;3.80;1.50;;;6.10;99.90;;;;;;20994290;28;20060;-76
2022/02/07 09:57:19;;;;;;;4.90;1.10;;;5.50;99.90;;;;;;20994043;28;20552;-76
2022/02/07 10:07:33;;;;;;;13.32;2.03;;;6.90;99.90;;;;;;20993090;28;20111;-75
2022/02/07 10:18:03;;;;;;;10.55;1.60;;;6.70;99.90;;;;;;20992466;28;20081;-76
2022/02/07 10:49:11;;;;;;;8.25;1.65;;;6.90;99.90;;;;;;20990725;28;20041;-76
2022/02/07 10:59:16;;;;;;;3.97;1.50;;;8.50;99.90;;;;;;20979001;28;20036;-76
2022/02/07 11:09:25;;;;;;;8.77;1.75;;;8.10;99.90;;;;;;21017686;28;20035;-76
2022/02/07 11:29:48;;;;;;;9.27;1.77;;;6.20;99.90;;;;;;21016927;28;20479;-76
2022/02/07 11:39:50;;;;;;;8.50;1.70;;;6.20;99.90;;;;;;21016102;28;20025;-75
2022/02/07 11:49:52;;;;;;;;;;;6.20;99.90;;;;;;21016530;28;20056;-75
2022/02/07 12:00:00;;;;;;;10.60;1.17;;;8.40;99.90;;;;;;20997896;28;19916;-77
2022/02/07 12:20:33;;;;;;;10.57;1.58;;;7.70;99.90;;;;;;21002137;28;20564;-77
2022/02/07 12:40:55;;;;;;;5.13;1.13;;;9.00;99.90;;;;;;20954841;22;20084;-73
2022/02/07 12:50:55;;;;;;;;;;;9.00;99.90;;;;;;20894774;28;20029;-73
2022/02/07 13:00:56;;;;;;;6.47;1.50;;;8.50;99.90;;;;;;20915669;28;19923;-73
2022/02/07 13:10:57;;;;;;;7.60;1.60;;;9.30;99.90;;;;;;20915402;28;20061;-73
2022/02/07 13:21:02;;;;;;;6.20;1.33;;;8.60;99.90;;;;;;20914265;28;20491;-72
2022/02/07 13:31:05;;;;;;;2.85;0.90;;;7.80;99.90;;;;;;20896076;28;20368;-73
2022/02/07 13:41:06;;;;;;;14.45;1.33;;;7.10;99.90;;;;;;20889017;28;20475;-73
2022/02/07 13:51:07;;;;;;;3.80;1.27;;;8.10;99.90;;;;;;20853868;28;20033;-72
2022/02/07 14:01:11;;;;;;;8.47;1.50;;;9.50;99.90;;;;;;20892260;28;20037;-72
2022/02/07 14:11:14;;;;;;;7.43;1.80;;;8.50;99.90;;;;;;20869676;28;20791;-72
2022/02/07 14:21:17;;;;;;;6.80;1.25;;;8.40;99.90;;;;;;20865361;28;20029;-72
2022/02/07 14:31:18;;;;;;;2.83;0.88;;;8.90;99.90;;;;;;20849729;28;20601;-73
2022/02/07 14:41:21;;;;;;;6.78;1.10;;;8.60;99.90;;;;;;20822958;28;20526;-73
2022/02/07 14:51:23;;;;;;;3.25;1.45;;;8.80;99.90;;;;;;20809660;28;20034;-73
2022/02/07 15:01:24;;;;;;;3.78;1.83;;;8.20;99.90;;;;;;20805595;28;20037;-73
2022/02/07 15:11:27;;;;;;;4.13;1.40;;;8.10;99.90;;;;;;20827706;28;20403;-73
2022/02/07 15:21:28;;;;;;;4.97;1.20;;;7.90;99.90;;;;;;20851853;28;20040;-73
2022/02/07 15:31:31;;;;;;;5.53;1.33;;;8.20;99.90;;;;;;20859705;28;20515;-73
2022/02/07 15:41:33;;;;;;;8.43;1.35;;;9.00;99.90;;;;;;20847573;28;20266;-73
2022/02/07 15:51:34;;;;;;;7.38;1.35;;;8.70;99.90;;;;;;20820452;28;20560;-73
2022/02/07 16:01:35;;;;;;;7.63;3.43;;;8.10;99.90;;;;;;20836211;28;20133;-73
2022/02/07 16:11:37;;;;;;;6.00;1.33;;;7.80;99.90;;;;;;20837259;28;20030;-73
2022/02/07 16:21:38;;;;;;;5.75;1.30;;;7.20;99.90;;;;;;20819345;28;20037;-73
2022/02/07 16:31:39;;;;;;;7.10;1.87;;;6.60;99.90;;;;;;20838898;28;20022;-73
2022/02/07 16:41:41;;;;;;;6.23;1.40;;;6.10;99.90;;;;;;20834785;28;20079;-73
2022/02/07 16:51:42;;;;;;;4.78;1.60;;;5.80;99.90;;;;;;20834631;28;20042;-73
2022/02/07 17:01:49;;;;;;;19.83;10.43;;;5.60;99.90;;;;;;20832509;28;20043;-73
2022/02/07 17:11:50;;;;;;;12.13;4.32;;;5.40;99.90;;;;;;20832182;28;20562;-73
2022/02/07 17:21:51;;;;;;;4.77;1.83;;;5.10;99.90;;;;;;20830421;28;20041;-73
2022/02/07 17:31:52;;;;;;;4.45;2.15;;;4.40;99.90;;;;;;20831096;28;20810;-73
2022/02/07 17:41:53;;;;;;;5.72;2.00;;;3.70;99.90;;;;;;20830198;28;20029;-72
2022/02/07 17:51:54;;;;;;;;;;;2.80;99.90;;;;;;20828926;28;20033;-73
2022/02/07 18:01:55;;;;;;;4.25;2.10;;;2.80;99.90;;;;;;20828154;28;20371;-72
2022/02/07 18:11:56;;;;;;;8.90;2.78;;;3.00;99.90;;;;;;20894004;28;20033;-72
2022/02/07 18:21:57;;;;;;;9.60;2.80;;;2.60;99.90;;;;;;20897024;28;20021;-72
2022/02/07 18:31:57;;;;;;;;;;;2.30;99.90;;;;;;20885188;28;20140;-73
2022/02/07 18:42:03;;;;;;;3.40;1.63;;;2.60;99.90;;;;;;20919951;22;19927;-77
2022/02/07 18:52:04;;;;;;;10.38;2.33;;;2.90;99.90;;;;;;20890078;28;20353;-76
2022/02/07 19:02:15;;;;;;;11.77;2.70;;;2.40;99.90;;;;;;20905898;28;20076;-77
2022/02/07 19:12:17;;;;;;;6.55;2.58;;;2.10;99.90;;;;;;20893028;28;20082;-77
2022/02/07 19:22:23;;;;;;;6.72;1.90;;;1.90;99.90;;;;;;20912125;28;20037;-77
2022/02/07 19:32:30;;;;;;;8.48;2.80;;;1.80;99.90;;;;;;20921544;28;20127;-77
2022/02/07 19:42:52;;;;;;;7.70;3.38;;;1.60;99.90;;;;;;20903729;28;20037;-77
2022/02/07 19:52:54;;;;;;;10.70;3.05;;;0.90;99.90;;;;;;20920681;28;20037;-77
2022/02/07 20:03:01;;;;;;;5.80;2.60;;;0.90;99.90;;;;;;20919491;28;20450;-77
2022/02/07 20:13:03;;;;;;;6.22;2.50;;;0.70;99.90;;;;;;20919508;28;20041;-77
2022/02/07 20:23:06;;;;;;;13.07;2.78;;;0.70;99.90;;;;;;20900838;28;20108;-77
2022/02/07 20:33:10;;;;;;;8.93;2.15;;;0.80;99.90;;;;;;20916878;28;20657;-77
2022/02/07 20:43:11;;;;;;;7.30;2.20;;;0.90;99.90;;;;;;20899482;28;20037;-77
2022/02/07 20:53:15;;;;;;;8.10;4.35;;;1.60;99.90;;;;;;20897085;28;20483;-75
2022/02/07 21:03:18;;;;;;;16.10;5.20;;;1.80;99.90;;;;;;20913933;28;20349;-76
2022/02/07 21:13:19;;;;;;;12.32;4.45;;;1.40;99.90;;;;;;20899149;28;20032;-75
2022/02/07 21:23:20;;;;;;;11.05;4.60;;;1.00;99.90;;;;;;20896850;28;20329;-76
2022/02/07 21:33:23;;;;;;;9.23;3.70;;;0.40;99.90;;;;;;20905230;28;20035;-76
2022/02/07 21:43:25;;;;;;;12.65;3.83;;;0.20;99.90;;;;;;20917692;28;20033;-76
2022/02/07 21:53:26;;;;;;;11.82;4.03;;;0.20;99.90;;;;;;20910735;28;20483;-75
2022/02/07 22:03:27;;;;;;;11.88;3.90;;;0.10;99.90;;;;;;20949061;28;20040;-77
2022/02/07 22:13:44;;;;;;;15.85;3.75;;;0.10;99.90;;;;;;20966180;28;20024;-76
2022/02/07 22:23:45;;;;;;;16.75;4.45;;;0.20;99.90;;;;;;20906988;28;20032;-76
2022/02/07 22:33:46;;;;;;;12.75;4.05;;;-0.40;99.90;;;;;;20890519;28;20029;-76
2022/02/07 22:43:47;;;;;;;10.15;4.05;;;-0.40;99.90;;;;;;20889689;28;20402;-76
2022/02/07 22:53:51;;;;;;;13.13;4.82;;;-0.40;99.90;;;;;;20906562;28;20033;-77
2022/02/07 23:03:54;;;;;;;16.33;5.28;;;-0.50;99.90;;;;;;20906811;28;20032;-76
2022/02/07 23:44:22;;;;;;;19.00;5.38;;;-1.10;99.90;;;;;;20905479;28;20028;-77
2022/02/07 23:54:41;;;;;;;17.05;5.03;;;-1.00;99.90;;;;;;20870581;28;20044;-77
